Time,TemperatureF,DewpointF,PressureIn,WindDirection,WindDirectionDegrees,WindSpeedMPH,WindSpeedGustMPH,Humidity,HourlyPrecipIn,Conditions,Clouds,dailyrainin,SoftwareType,DateUTC
2013-09-30 00:02:00,72.4,72.0,29.90,East,82,2.0,2.0,98,0.00,,,0.00,weatherlink.com 1.10,2013-09-30 05:02:00,
2013-09-30 00:17:00,72.4,72.0,29.90,East,82,0.0,2.0,97,0.00,,,0.00,weatherlink.com 1.10,2013-09-30 05:17:00,
2013-09-30 00:32:00,72.4,72.0,29.90,East,82,0.0,1.0,97,0.00,,,0.00,weatherlink.com 1.10,2013-09-30 05:32:00,
2013-09-30 00:47:00,72.3,71.0,29.89,East,82,0.0,1.0,97,0.00,,,0.00,weatherlink.com 1.10,2013-09-30 05:47:00,
2013-09-30 01:02:00,72.3,71.0,29.89,East,82,0.0,1.0,97,0.00,,,0.00,weatherlink.com 1.10,2013-09-30 06:02:00,
2013-09-30 01:17:00,72.3,71.0,29.89,East,82,0.0,1.0,97,0.00,,,0.00,weatherlink.com 1.10,2013-09-30 06:17:00,
2013-09-30 01:32:00,72.3,71.0,29.89,East,82,0.0,1.0,96,0.00,,,0.00,weatherlink.com 1.10,2013-09-30 06:32:00,
2013-09-30 01:47:00,72.3,71.0,29.89,East,82,0.0,1.0,96,0.00,,,0.00,weatherlink.com 1.10,2013-09-30 06:47:00,
2013-09-30 02:02:00,72.2,71.0,29.89,East,82,0.0,0.0,96,0.00,,,0.00,weatherlink.com 1.10,2013-09-30 07:02:00,
2013-09-30 02:17:00,72.2,71.0,29.88,East,82,0.0,0.0,97,0.00,,,0.00,weatherlink.com 1.10,2013-09-30 07:17:00,
2013-09-30 02:32:00,72.1,71.0,29.88,East,82,0.0,0.0,97,0.00,,,0.00,weatherlink.com 1.10,2013-09-30 07:32:00,
2013-09-30 02:47:00,72.0,71.0,29.88,East,82,0.0,0.0,97,0.00,,,0.00,weatherlink.com 1.10,2013-09-30 07:47:00,
2013-09-30 03:02:00,72.0,71.0,29.87,East,82,0.0,0.0,97,0.00,,,0.00,weatherlink.com 1.10,2013-09-30 08:02:00,
2013-09-30 03:17:00,72.0,71.0,29.87,East,82,0.0,0.0,97,0.00,,,0.00,weatherlink.com 1.10,2013-09-30 08:17:00,
2013-09-30 03:32:00,71.9,71.0,29.87,East,82,0.0,0.0,97,0.00,,,0.00,weatherlink.com 1.10,2013-09-30 08:32:00,
2013-09-30 03:47:00,71.9,71.0,29.87,East,82,0.0,1.0,97,0.00,,,0.00,weatherlink.com 1.10,2013-09-30 08:47:00,
2013-09-30 04:02:00,71.8,71.0,29.87,East,82,0.0,1.0,96,0.00,,,0.00,weatherlink.com 1.10,2013-09-30 09:02:00,
2013-09-30 04:17:00,71.8,71.0,29.87,East,82,0.0,0.0,96,0.00,,,0.00,weatherlink.com 1.10,2013-09-30 09:17:00,
2013-09-30 04:32:00,71.8,71.0,29.87,East,82,0.0,2.0,96,0.00,,,0.00,weatherlink.com 1.10,2013-09-30 09:32:00,
2013-09-30 04:47:00,71.8,71.0,29.87,East,82,0.0,0.0,96,0.00,,,0.00,weatherlink.com 1.10,2013-09-30 09:47:00,
2013-09-30 05:02:00,71.8,71.0,29.88,East,82,0.0,0.0,97,0.01,,,0.01,weatherlink.com 1.10,2013-09-30 10:02:00,
2013-09-30 05:17:00,71.9,71.0,29.88,East,82,0.0,0.0,97,0.01,,,0.01,weatherlink.com 1.10,2013-09-30 10:17:00,
2013-09-30 05:32:00,71.9,71.0,29.88,East,82,0.0,0.0,97,0.01,,,0.01,weatherlink.com 1.10,2013-09-30 10:32:00,
2013-09-30 05:47:00,71.9,71.0,29.88,East,82,0.0,1.0,97,0.01,,,0.01,weatherlink.com 1.10,2013-09-30 10:47:00,
2013-09-30 06:02:00,71.9,71.0,29.88,East,82,0.0,2.0,97,0.00,,,0.01,weatherlink.com 1.10,2013-09-30 11:02:00,
2013-09-30 06:17:00,71.9,71.0,29.88,East,82,0.0,1.0,97,0.00,,,0.01,weatherlink.com 1.10,2013-09-30 11:17:00,
2013-09-30 06:32:00,71.9,71.0,29.88,East,82,0.0,0.0,97,0.00,,,0.01,weatherlink.com 1.10,2013-09-30 11:32:00,
2013-09-30 06:47:00,72.1,71.0,29.88,East,82,0.0,1.0,97,0.00,,,0.01,weatherlink.com 1.10,2013-09-30 11:47:00,
2013-09-30 07:02:00,72.1,71.0,29.88,East,82,0.0,1.0,97,0.00,,,0.01,weatherlink.com 1.10,2013-09-30 12:02:00,
2013-09-30 07:17:00,72.2,71.0,29.88,East,82,0.0,1.0,97,0.00,,,0.01,weatherlink.com 1.10,2013-09-30 12:17:00,
2013-09-30 07:32:00,72.4,72.0,29.88,East,82,0.0,1.0,97,0.00,,,0.01,weatherlink.com 1.10,2013-09-30 12:32:00,
2013-09-30 07:47:00,72.5,72.0,29.89,East,82,0.0,2.0,97,0.00,,,0.01,weatherlink.com 1.10,2013-09-30 12:47:00,
2013-09-30 08:02:00,72.9,72.0,29.88,East,82,0.0,2.0,97,0.00,,,0.01,weatherlink.com 1.10,2013-09-30 13:02:00,
2013-09-30 08:17:00,73.4,73.0,29.88,East,88,2.0,5.0,97,0.00,,,0.01,weatherlink.com 1.10,2013-09-30 13:17:00,
2013-09-30 08:32:00,74.4,74.0,29.89,East,88,2.0,5.0,97,0.00,,,0.01,weatherlink.com 1.10,2013-09-30 13:32:00,
2013-09-30 08:47:00,75.2,74.0,29.89,East,84,1.0,4.0,95,0.00,,,0.01,weatherlink.com 1.10,2013-09-30 13:47:00,
2013-09-30 09:02:00,75.9,74.0,29.89,East,98,2.0,5.0,94,0.00,,,0.01,weatherlink.com 1.10,2013-09-30 14:02:00,
2013-09-30 09:17:00,76.6,75.0,29.89,ESE,123,2.0,4.0,93,0.00,,,0.01,weatherlink.com 1.10,2013-09-30 14:17:00,
2013-09-30 09:32:00,77.0,74.0,29.90,SE,126,1.0,4.0,91,0.00,,,0.01,weatherlink.com 1.10,2013-09-30 14:32:00,
2013-09-30 09:47:00,77.3,75.0,29.90,ESE,107,1.0,3.0,91,0.00,,,0.01,weatherlink.com 1.10,2013-09-30 14:47:00,
2013-09-30 10:02:00,78.2,75.0,29.89,ESE,113,4.0,4.0,91,0.00,,,0.01,weatherlink.com 1.10,2013-09-30 15:02:00,
2013-09-30 10:17:00,80.7,77.0,29.89,SE,138,2.0,4.0,89,0.00,,,0.01,weatherlink.com 1.10,2013-09-30 15:17:00,
2013-09-30 10:32:00,81.6,76.0,29.89,East,98,2.0,5.0,84,0.00,,,0.01,weatherlink.com 1.10,2013-09-30 15:32:00,
2013-09-30 10:47:00,81.9,77.0,29.89,SSE,148,1.0,5.0,85,0.00,,,0.01,weatherlink.com 1.10,2013-09-30 15:47:00,
2013-09-30 11:02:00,84.1,77.0,29.89,ESE,120,5.0,8.0,80,0.00,,,0.01,weatherlink.com 1.10,2013-09-30 16:02:00,
2013-09-30 11:18:00,84.6,76.0,29.89,South,178,2.0,7.0,76,0.00,,,0.01,weatherlink.com 1.10,2013-09-30 16:18:00,
2013-09-30 11:33:00,83.9,76.0,29.90,South,182,2.0,8.0,77,0.00,,,0.01,weatherlink.com 1.10,2013-09-30 16:33:00,
2013-09-30 11:48:00,81.0,74.0,29.90,WSW,241,4.0,9.0,79,0.00,,,0.01,weatherlink.com 1.10,2013-09-30 16:48:00,
2013-09-30 12:03:00,76.2,72.0,29.90,WSW,239,3.0,8.0,87,0.00,,,0.01,weatherlink.com 1.10,2013-09-30 17:03:00,
2013-09-30 12:18:00,74.3,73.0,29.91,WSW,240,2.0,7.0,94,0.01,,,0.02,weatherlink.com 1.10,2013-09-30 17:18:00,
2013-09-30 12:33:00,74.6,73.0,29.91,WSW,251,2.0,7.0,96,0.01,,,0.02,weatherlink.com 1.10,2013-09-30 17:33:00,
2013-09-30 12:48:00,75.3,74.0,29.90,SW,221,2.0,10.0,95,0.01,,,0.02,weatherlink.com 1.10,2013-09-30 17:48:00,
2013-09-30 13:03:00,76.2,74.0,29.91,SW,236,4.0,7.0,94,0.02,,,0.03,weatherlink.com 1.10,2013-09-30 18:03:00,
2013-09-30 13:18:00,76.6,75.0,29.89,SW,227,1.0,5.0,94,0.01,,,0.03,weatherlink.com 1.10,2013-09-30 18:18:00,
2013-09-30 13:33:00,76.8,74.0,29.88,WSW,239,5.0,7.0,92,0.01,,,0.03,weatherlink.com 1.10,2013-09-30 18:33:00,
2013-09-30 13:48:00,77.0,73.0,29.88,South,180,1.0,8.0,88,0.01,,,0.03,weatherlink.com 1.10,2013-09-30 18:48:00,
2013-09-30 14:18:00,77.9,73.0,29.88,SSE,165,2.0,5.0,85,0.00,,,0.03,weatherlink.com 1.10,2013-09-30 19:18:00,
2013-09-30 14:33:00,78.3,74.0,29.87,SSE,157,0.0,4.0,85,0.00,,,0.03,weatherlink.com 1.10,2013-09-30 19:33:00,
2013-09-30 14:48:00,78.6,72.0,29.86,South,185,0.0,4.0,81,0.00,,,0.03,weatherlink.com 1.10,2013-09-30 19:48:00,
2013-09-30 15:03:00,79.3,74.0,29.86,South,185,0.0,1.0,83,0.00,,,0.03,weatherlink.com 1.10,2013-09-30 20:03:00,
2013-09-30 15:18:00,79.3,74.0,29.85,ESE,121,1.0,3.0,83,0.00,,,0.03,weatherlink.com 1.10,2013-09-30 20:18:00,
2013-09-30 15:33:00,79.1,73.0,29.85,SE,143,1.0,4.0,82,0.00,,,0.03,weatherlink.com 1.10,2013-09-30 20:33:00,
2013-09-30 15:48:00,79.3,74.0,29.84,SE,127,1.0,5.0,83,0.00,,,0.03,weatherlink.com 1.10,2013-09-30 20:48:00,
2013-09-30 16:18:00,80.3,72.0,29.83,South,177,3.0,8.0,76,0.00,,,0.03,weatherlink.com 1.10,2013-09-30 21:18:00,
2013-09-30 16:33:00,80.5,73.0,29.83,SE,145,2.0,7.0,78,0.00,,,0.03,weatherlink.com 1.10,2013-09-30 21:33:00,
2013-09-30 16:48:00,80.7,74.0,29.83,ESE,118,3.0,5.0,80,0.00,,,0.03,weatherlink.com 1.10,2013-09-30 21:48:00,
2013-09-30 17:03:00,80.8,75.0,29.84,ESE,109,2.0,5.0,81,0.00,,,0.03,weatherlink.com 1.10,2013-09-30 22:03:00,
2013-09-30 17:18:00,80.7,74.0,29.83,SE,143,2.0,7.0,81,0.00,,,0.03,weatherlink.com 1.10,2013-09-30 22:18:00,
2013-09-30 17:33:00,80.7,75.0,29.84,East,90,1.0,4.0,82,0.00,,,0.03,weatherlink.com 1.10,2013-09-30 22:33:00,
2013-09-30 17:48:00,80.7,74.0,29.86,East,89,0.0,3.0,80,0.00,,,0.03,weatherlink.com 1.10,2013-09-30 22:48:00,
2013-09-30 18:03:00,80.6,75.0,29.86,NW,322,0.0,3.0,84,0.00,,,0.03,weatherlink.com 1.10,2013-09-30 23:03:00,
2013-09-30 18:18:00,79.6,75.0,29.86,NE,54,3.0,4.0,86,0.00,,,0.03,weatherlink.com 1.10,2013-09-30 23:18:00,
2013-09-30 18:33:00,78.7,75.0,29.86,ENE,67,1.0,4.0,89,0.00,,,0.03,weatherlink.com 1.10,2013-09-30 23:33:00,
2013-09-30 18:48:00,78.2,75.0,29.87,ENE,57,0.0,1.0,90,0.00,,,0.03,weatherlink.com 1.10,2013-09-30 23:48:00,
2013-09-30 19:03:00,77.9,75.0,29.87,ENE,57,1.0,2.0,91,0.00,,,0.03,weatherlink.com 1.10,2013-10-01 00:03:00,
2013-09-30 19:18:00,77.5,75.0,29.86,ENE,68,1.0,2.0,92,0.00,,,0.03,weatherlink.com 1.10,2013-10-01 00:18:00,
2013-09-30 19:33:00,77.0,75.0,29.86,NE,51,1.0,5.0,93,0.00,,,0.03,weatherlink.com 1.10,2013-10-01 00:33:00,
2013-09-30 19:48:00,76.6,75.0,29.86,ENE,78,2.0,7.0,95,0.00,,,0.03,weatherlink.com 1.10,2013-10-01 00:48:00,
2013-09-30 20:03:00,76.2,75.0,29.87,NE,55,0.0,4.0,95,0.00,,,0.03,weatherlink.com 1.10,2013-10-01 01:03:00,
2013-09-30 20:18:00,76.1,75.0,29.88,NE,55,0.0,3.0,95,0.00,,,0.03,weatherlink.com 1.10,2013-10-01 01:18:00,
2013-09-30 20:33:00,75.7,74.0,29.89,NE,55,0.0,3.0,95,0.00,,,0.03,weatherlink.com 1.10,2013-10-01 01:33:00,
2013-09-30 20:48:00,75.4,74.0,29.89,ENE,68,2.0,3.0,95,0.00,,,0.03,weatherlink.com 1.10,2013-10-01 01:48:00,
2013-09-30 21:03:00,75.3,74.0,29.89,ENE,74,2.0,4.0,96,0.00,,,0.03,weatherlink.com 1.10,2013-10-01 02:03:00,
2013-09-30 21:18:00,74.9,73.0,29.89,East,92,2.0,7.0,95,0.00,,,0.03,weatherlink.com 1.10,2013-10-01 02:18:00,
2013-09-30 21:33:00,74.7,73.0,29.89,ESE,110,3.0,7.0,94,0.00,,,0.03,weatherlink.com 1.10,2013-10-01 02:33:00,
2013-09-30 21:48:00,74.6,73.0,29.89,ESE,105,3.0,7.0,95,0.00,,,0.03,weatherlink.com 1.10,2013-10-01 02:48:00,
2013-09-30 22:03:00,74.4,73.0,29.89,East,94,6.0,8.0,95,0.00,,,0.03,weatherlink.com 1.10,2013-10-01 03:03:00,
2013-09-30 22:18:00,74.2,73.0,29.90,East,88,5.0,6.0,95,0.00,,,0.03,weatherlink.com 1.10,2013-10-01 03:18:00,
2013-09-30 22:33:00,74.0,73.0,29.89,East,89,3.0,7.0,95,0.00,,,0.03,weatherlink.com 1.10,2013-10-01 03:33:00,
2013-09-30 22:48:00,73.9,72.0,29.90,East,92,2.0,7.0,95,0.00,,,0.03,weatherlink.com 1.10,2013-10-01 03:48:00,
2013-09-30 23:03:00,73.7,72.0,29.91,East,88,2.0,5.0,95,0.00,,,0.03,weatherlink.com 1.10,2013-10-01 04:03:00,
2013-09-30 23:18:00,73.5,72.0,29.91,East,95,1.0,5.0,95,0.00,,,0.03,weatherlink.com 1.10,2013-10-01 04:18:00,
2013-09-30 23:33:00,73.3,72.0,29.91,East,95,0.0,3.0,95,0.00,,,0.03,weatherlink.com 1.10,2013-10-01 04:33:00,
2013-09-30 23:48:00,73.1,72.0,29.90,ENE,76,1.0,3.0,96,0.00,,,0.03,weatherlink.com 1.10,2013-10-01 04:48:00,